Aviation Digital Data Service (ADDS)

Output produced by METARs form (2105 UTC 21 February 2017)
found at http://aviationweather.gov/adds/metars/
 
KRDU 211720Z 2118/2218 12005KT P6SM BKN250 
     FM220800 11003KT 5SM BR BKN020 
     TEMPO 2210/2213 3SM -DZ BR OVC007 
     FM221500 16004KT P6SM BKN025